sensor_id;sensor_type;location;lat;lon;timestamp;pressure;altitude;pressure_sealevel;temperature;humidity
42601;BME280;28229;48.856;9.088;2023-04-06T00:02:06;98188.50;;;0.35;68.26
42601;BME280;28229;48.856;9.088;2023-04-06T00:04:32;98193.03;;;0.33;68.70
42601;BME280;28229;48.856;9.088;2023-04-06T00:07:08;98189.88;;;0.40;68.68
42601;BME280;28229;48.856;9.088;2023-04-06T00:09:34;98195.47;;;0.35;68.90
42601;BME280;28229;48.856;9.088;2023-04-06T00:12:00;98185.72;;;0.29;69.45
42601;BME280;28229;48.856;9.088;2023-04-06T00:14:27;98181.06;;;0.32;69.13
42601;BME280;28229;48.856;9.088;2023-04-06T00:16:53;98183.28;;;0.27;69.07
42601;BME280;28229;48.856;9.088;2023-04-06T00:19:19;98182.03;;;0.04;69.13
42601;BME280;28229;48.856;9.088;2023-04-06T00:21:45;98179.47;;;0.04;68.41
42601;BME280;28229;48.856;9.088;2023-04-06T00:24:12;98178.38;;;-0.04;68.66
42601;BME280;28229;48.856;9.088;2023-04-06T00:26:38;98174.69;;;-0.01;68.51
42601;BME280;28229;48.856;9.088;2023-04-06T00:29:04;98180.25;;;0.04;68.32
42601;BME280;28229;48.856;9.088;2023-04-06T00:31:31;98176.56;;;0.07;68.40
42601;BME280;28229;48.856;9.088;2023-04-06T00:33:57;98177.16;;;0.01;68.44
42601;BME280;28229;48.856;9.088;2023-04-06T00:36:24;98171.97;;;0.01;68.60
42601;BME280;28229;48.856;9.088;2023-04-06T00:38:51;98170.41;;;-0.10;69.38
42601;BME280;28229;48.856;9.088;2023-04-06T00:41:17;98167.94;;;-0.12;69.14
42601;BME280;28229;48.856;9.088;2023-04-06T00:43:44;98170.16;;;-0.17;69.06
42601;BME280;28229;48.856;9.088;2023-04-06T00:46:10;98172.06;;;-0.19;68.78
42601;BME280;28229;48.856;9.088;2023-04-06T00:48:36;98173.16;;;-0.22;69.15
42601;BME280;28229;48.856;9.088;2023-04-06T00:51:03;98160.84;;;-0.10;68.15
42601;BME280;28229;48.856;9.088;2023-04-06T00:53:29;98166.84;;;-0.09;68.32
42601;BME280;28229;48.856;9.088;2023-04-06T00:55:57;98167.13;;;-0.12;68.47
42601;BME280;28229;48.856;9.088;2023-04-06T00:58:24;98161.13;;;-0.13;68.49
42601;BME280;28229;48.856;9.088;2023-04-06T01:00:57;98170.41;;;-0.10;68.64
42601;BME280;28229;48.856;9.088;2023-04-06T01:03:24;98162.78;;;-0.12;68.96
42601;BME280;28229;48.856;9.088;2023-04-06T01:05:51;98164.91;;;-0.07;69.02
42601;BME280;28229;48.856;9.088;2023-04-06T01:08:26;98164.38;;;-0.11;69.17
42601;BME280;28229;48.856;9.088;2023-04-06T01:11:00;98157.31;;;-0.09;68.44
42601;BME280;28229;48.856;9.088;2023-04-06T01:13:30;98156.28;;;-0.16;68.54
42601;BME280;28229;48.856;9.088;2023-04-06T01:16:00;98155.97;;;-0.13;68.93
42601;BME280;28229;48.856;9.088;2023-04-06T01:18:33;98157.06;;;-0.15;69.08
42601;BME280;28229;48.856;9.088;2023-04-06T01:21:11;98151.38;;;-0.19;68.50
42601;BME280;28229;48.856;9.088;2023-04-06T01:23:46;98157.31;;;-0.09;68.45
42601;BME280;28229;48.856;9.088;2023-04-06T01:26:15;98151.63;;;-0.12;68.32
42601;BME280;28229;48.856;9.088;2023-04-06T01:28:42;98152.84;;;-0.16;68.56
42601;BME280;28229;48.856;9.088;2023-04-06T01:31:22;98151.38;;;-0.19;68.67
42601;BME280;28229;48.856;9.088;2023-04-06T01:33:54;98145.16;;;-0.26;68.66
42601;BME280;28229;48.856;9.088;2023-04-06T01:36:23;98148.69;;;-0.27;69.05
42601;BME280;28229;48.856;9.088;2023-04-06T01:38:58;98143.97;;;-0.32;69.37
42601;BME280;28229;48.856;9.088;2023-04-06T01:41:32;98136.63;;;-0.36;69.52
42601;BME280;28229;48.856;9.088;2023-04-06T01:43:58;98146.84;;;-0.45;70.01
42601;BME280;28229;48.856;9.088;2023-04-06T01:46:27;98140.84;;;-0.35;70.36
42601;BME280;28229;48.856;9.088;2023-04-06T01:48:54;98140.84;;;-0.35;70.37
42601;BME280;28229;48.856;9.088;2023-04-06T01:51:40;98139.88;;;-0.34;70.30
42601;BME280;28229;48.856;9.088;2023-04-06T01:54:10;98140.44;;;-0.41;69.87
42601;BME280;28229;48.856;9.088;2023-04-06T01:56:57;98139.59;;;-0.31;70.86
42601;BME280;28229;48.856;9.088;2023-04-06T01:59:33;98137.28;;;-0.34;71.12
42601;BME280;28229;48.856;9.088;2023-04-06T02:02:05;98133.22;;;-0.37;71.16
42601;BME280;28229;48.856;9.088;2023-04-06T02:04:33;98136.50;;;-0.45;71.38
42601;BME280;28229;48.856;9.088;2023-04-06T02:07:08;98137.34;;;-0.54;71.41
42601;BME280;28229;48.856;9.088;2023-04-06T02:09:35;98130.84;;;-0.58;71.30
42601;BME280;28229;48.856;9.088;2023-04-06T02:12:03;98131.97;;;-0.61;71.38
42601;BME280;28229;48.856;9.088;2023-04-06T02:14:32;98136.56;;;-0.64;71.04
42601;BME280;28229;48.856;9.088;2023-04-06T02:17:00;98129.94;;;-0.67;70.89
42601;BME280;28229;48.856;9.088;2023-04-06T02:19:26;98128.16;;;-0.66;70.85
42601;BME280;28229;48.856;9.088;2023-04-06T02:21:53;98127.88;;;-0.63;71.03
42601;BME280;28229;48.856;9.088;2023-04-06T02:24:19;98131.13;;;-0.61;71.14
42601;BME280;28229;48.856;9.088;2023-04-06T02:26:45;98131.38;;;-0.54;71.57
42601;BME280;28229;48.856;9.088;2023-04-06T02:29:12;98127.03;;;-0.54;71.96
42601;BME280;28229;48.856;9.088;2023-04-06T02:31:38;98128.28;;;-0.68;72.50
42601;BME280;28229;48.856;9.088;2023-04-06T02:34:05;98127.59;;;-0.60;72.26
42601;BME280;28229;48.856;9.088;2023-04-06T02:36:33;98129.25;;;-0.69;72.53
42601;BME280;28229;48.856;9.088;2023-04-06T02:38:59;98116.75;;;-0.73;72.60
42601;BME280;28229;48.856;9.088;2023-04-06T02:41:26;98121.25;;;-0.75;72.71
42601;BME280;28229;48.856;9.088;2023-04-06T02:43:53;98118.94;;;-0.79;72.72
42601;BME280;28229;48.856;9.088;2023-04-06T02:46:34;98119.63;;;-0.77;72.91
42601;BME280;28229;48.856;9.088;2023-04-06T02:49:00;98124.94;;;-0.88;73.22
42601;BME280;28229;48.856;9.088;2023-04-06T02:51:28;98119.09;;;-0.90;72.50
42601;BME280;28229;48.856;9.088;2023-04-06T02:54:03;98117.38;;;-1.09;72.63
42601;BME280;28229;48.856;9.088;2023-04-06T02:56:29;98116.16;;;-1.05;72.44
42601;BME280;28229;48.856;9.088;2023-04-06T02:58:55;98115.31;;;-1.05;72.35
42601;BME280;28229;48.856;9.088;2023-04-06T03:01:26;98116.03;;;-1.13;73.00
42601;BME280;28229;48.856;9.088;2023-04-06T03:03:57;98119.28;;;-1.11;72.55
42601;BME280;28229;48.856;9.088;2023-04-06T03:06:26;98118.22;;;-1.08;73.35
42601;BME280;28229;48.856;9.088;2023-04-06T03:08:56;98123.38;;;-1.08;74.07
42601;BME280;28229;48.856;9.088;2023-04-06T03:11:24;98117.63;;;-1.02;73.82
42601;BME280;28229;48.856;9.088;2023-04-06T03:13:52;98105.97;;;-1.16;74.05
42601;BME280;28229;48.856;9.088;2023-04-06T03:16:20;98112.78;;;-1.25;74.32
42601;BME280;28229;48.856;9.088;2023-04-06T03:18:47;98111.00;;;-1.34;74.94
42601;BME280;28229;48.856;9.088;2023-04-06T03:21:13;98108.72;;;-1.27;75.27
42601;BME280;28229;48.856;9.088;2023-04-06T03:23:47;98110.63;;;-1.29;75.11
42601;BME280;28229;48.856;9.088;2023-04-06T03:26:17;98109.50;;;-1.27;75.43
42601;BME280;28229;48.856;9.088;2023-04-06T03:28:43;98114.81;;;-1.28;75.53
42601;BME280;28229;48.856;9.088;2023-04-06T03:31:09;98111.69;;;-1.32;75.49
42601;BME280;28229;48.856;9.088;2023-04-06T03:33:56;98116.31;;;-1.26;75.15
42601;BME280;28229;48.856;9.088;2023-04-06T03:36:27;98111.44;;;-1.29;74.98
42601;BME280;28229;48.856;9.088;2023-04-06T03:38:56;98109.66;;;-1.28;74.34
42601;BME280;28229;48.856;9.088;2023-04-06T03:41:23;98113.06;;;-1.28;74.61
42601;BME280;28229;48.856;9.088;2023-04-06T03:44:18;98114.97;;;-1.30;74.66
42601;BME280;28229;48.856;9.088;2023-04-06T03:46:44;98121.63;;;-1.37;74.71
42601;BME280;28229;48.856;9.088;2023-04-06T03:49:11;98115.91;;;-1.31;74.66
42601;BME280;28229;48.856;9.088;2023-04-06T03:51:37;98118.75;;;-1.34;75.09
42601;BME280;28229;48.856;9.088;2023-04-06T03:54:04;98117.41;;;-1.38;75.08
42601;BME280;28229;48.856;9.088;2023-04-06T03:56:30;98121.91;;;-1.40;75.16
42601;BME280;28229;48.856;9.088;2023-04-06T03:58:57;98123.38;;;-1.38;74.94
42601;BME280;28229;48.856;9.088;2023-04-06T04:01:23;98130.47;;;-1.49;75.51
42601;BME280;28229;48.856;9.088;2023-04-06T04:03:49;98131.13;;;-1.47;75.50
42601;BME280;28229;48.856;9.088;2023-04-06T04:06:16;98136.31;;;-1.47;75.37
42601;BME280;28229;48.856;9.088;2023-04-06T04:08:42;98133.31;;;-1.52;75.48
42601;BME280;28229;48.856;9.088;2023-04-06T04:11:23;98130.19;;;-1.56;75.33
42601;BME280;28229;48.856;9.088;2023-04-06T04:13:58;98130.47;;;-1.49;75.44
42601;BME280;28229;48.856;9.088;2023-04-06T04:16:24;98136.56;;;-1.50;75.56
42601;BME280;28229;48.856;9.088;2023-04-06T04:18:50;98134.53;;;-1.37;75.58
42601;BME280;28229;48.856;9.088;2023-04-06T04:21:16;98139.97;;;-1.40;75.76
42601;BME280;28229;48.856;9.088;2023-04-06T04:23:43;98130.47;;;-1.49;75.71
42601;BME280;28229;48.856;9.088;2023-04-06T04:26:09;98135.88;;;-1.52;75.90
42601;BME280;28229;48.856;9.088;2023-04-06T04:28:36;98137.78;;;-1.45;75.89
42601;BME280;28229;48.856;9.088;2023-04-06T04:31:02;98128.41;;;-1.36;76.74
42601;BME280;28229;48.856;9.088;2023-04-06T04:33:31;98141.88;;;-1.42;76.37
42601;BME280;28229;48.856;9.088;2023-04-06T04:36:00;98139.94;;;-1.50;77.04
42601;BME280;28229;48.856;9.088;2023-04-06T04:38:32;98138.84;;;-1.57;76.85
42601;BME280;28229;48.856;9.088;2023-04-06T04:40:58;98140.75;;;-1.59;76.92
42601;BME280;28229;48.856;9.088;2023-04-06T04:43:24;98130.28;;;-1.77;77.88
42601;BME280;28229;48.856;9.088;2023-04-06T04:45:51;98132.06;;;-1.68;77.45
42601;BME280;28229;48.856;9.088;2023-04-06T04:48:34;98141.72;;;-1.70;78.09
42601;BME280;28229;48.856;9.088;2023-04-06T04:51:04;98138.06;;;-1.67;77.75
42601;BME280;28229;48.856;9.088;2023-04-06T04:53:42;98148.22;;;-1.66;77.58
42601;BME280;28229;48.856;9.088;2023-04-06T04:56:17;98138.88;;;-1.67;77.56
42601;BME280;28229;48.856;9.088;2023-04-06T04:58:45;98145.63;;;-1.76;77.65
42601;BME280;28229;48.856;9.088;2023-04-06T05:01:12;98140.47;;;-1.76;77.73
42601;BME280;28229;48.856;9.088;2023-04-06T05:14:58;98151.34;;;-1.72;77.96
42601;BME280;28229;48.856;9.088;2023-04-06T05:17:24;98145.94;;;-1.69;77.85
42601;BME280;28229;48.856;9.088;2023-04-06T05:19:52;98151.63;;;-1.65;77.32
42601;BME280;28229;48.856;9.088;2023-04-06T05:22:23;98150.78;;;-1.66;76.53
42601;BME280;28229;48.856;9.088;2023-04-06T05:24:58;98154.75;;;-1.62;77.47
42601;BME280;28229;48.856;9.088;2023-04-06T05:27:24;98162.38;;;-1.50;78.93
42601;BME280;28229;48.856;9.088;2023-04-06T05:29:52;98159.53;;;-1.47;77.90
42601;BME280;28229;48.856;9.088;2023-04-06T05:32:18;98162.09;;;-1.47;77.64
42601;BME280;28229;48.856;9.088;2023-04-06T05:34:49;98160.47;;;-1.39;77.82
42601;BME280;28229;48.856;9.088;2023-04-06T05:37:16;98168.22;;;-1.29;77.64
42601;BME280;28229;48.856;9.088;2023-04-06T05:39:42;98167.69;;;-1.23;77.40
42601;BME280;28229;48.856;9.088;2023-04-06T05:42:11;98161.69;;;-1.13;77.14
42601;BME280;28229;48.856;9.088;2023-04-06T05:44:50;98162.50;;;-1.03;77.00
42601;BME280;28229;48.856;9.088;2023-04-06T05:47:17;98170.63;;;-0.98;76.72
42601;BME280;28229;48.856;9.088;2023-04-06T05:49:47;98168.44;;;-0.93;76.93
42601;BME280;28229;48.856;9.088;2023-04-06T05:52:25;98170.75;;;-0.90;77.02
42601;BME280;28229;48.856;9.088;2023-04-06T05:55:10;98169.81;;;-0.89;77.01
42601;BME280;28229;48.856;9.088;2023-04-06T05:57:39;98167.66;;;-0.84;77.50
42601;BME280;28229;48.856;9.088;2023-04-06T06:00:10;98165.28;;;-0.67;81.84
42601;BME280;28229;48.856;9.088;2023-04-06T06:02:45;98170.22;;;-0.36;91.84
42601;BME280;28229;48.856;9.088;2023-04-06T06:05:19;98169.47;;;-0.19;94.41
42601;BME280;28229;48.856;9.088;2023-04-06T06:07:51;98176.97;;;-0.16;84.41
42601;BME280;28229;48.856;9.088;2023-04-06T06:10:18;98182.94;;;-0.15;81.08
42601;BME280;28229;48.856;9.088;2023-04-06T06:12:49;98178.16;;;-0.10;76.84
42601;BME280;28229;48.856;9.088;2023-04-06T06:15:16;98180.97;;;-0.04;75.65
42601;BME280;28229;48.856;9.088;2023-04-06T06:17:46;98181.44;;;0.10;75.06
42601;BME280;28229;48.856;9.088;2023-04-06T06:20:13;98180.66;;;0.09;75.03
42601;BME280;28229;48.856;9.088;2023-04-06T06:22:39;98184.81;;;0.20;74.30
42601;BME280;28229;48.856;9.088;2023-04-06T06:25:10;98178.09;;;0.27;73.96
42601;BME280;28229;48.856;9.088;2023-04-06T06:27:37;98185.25;;;0.33;73.29
42601;BME280;28229;48.856;9.088;2023-04-06T06:30:05;98180.19;;;0.42;73.46
42601;BME280;28229;48.856;9.088;2023-04-06T06:32:32;98185.34;;;0.42;72.52
42601;BME280;28229;48.856;9.088;2023-04-06T06:35:02;98184.84;;;0.56;72.39
42601;BME280;28229;48.856;9.088;2023-04-06T06:37:28;98187.88;;;0.69;72.12
42601;BME280;28229;48.856;9.088;2023-04-06T06:39:57;98178.34;;;0.88;70.70
42601;BME280;28229;48.856;9.088;2023-04-06T06:42:23;98181.34;;;1.01;70.71
42601;BME280;28229;48.856;9.088;2023-04-06T06:45:10;98185.94;;;1.07;70.13
42601;BME280;28229;48.856;9.088;2023-04-06T06:47:36;98190.59;;;1.22;69.60
42601;BME280;28229;48.856;9.088;2023-04-06T06:50:03;98185.13;;;1.33;68.65
42601;BME280;28229;48.856;9.088;2023-04-06T06:52:33;98193.50;;;1.45;68.76
42601;BME280;28229;48.856;9.088;2023-04-06T06:55:01;98193.44;;;1.63;68.02
42601;BME280;28229;48.856;9.088;2023-04-06T06:57:27;98190.81;;;1.89;73.15
42601;BME280;28229;48.856;9.088;2023-04-06T06:59:54;98195.31;;;2.21;75.61
42601;BME280;28229;48.856;9.088;2023-04-06T07:02:25;98191.84;;;2.55;67.99
42601;BME280;28229;48.856;9.088;2023-04-06T07:04:54;98182.13;;;2.74;66.85
42601;BME280;28229;48.856;9.088;2023-04-06T07:07:30;98189.13;;;2.98;65.30
42601;BME280;28229;48.856;9.088;2023-04-06T07:10:00;98198.88;;;3.04;64.21
42601;BME280;28229;48.856;9.088;2023-04-06T07:12:27;98190.91;;;3.14;61.94
42601;BME280;28229;48.856;9.088;2023-04-06T07:14:53;98193.16;;;3.25;62.10
42601;BME280;28229;48.856;9.088;2023-04-06T07:17:19;98191.53;;;3.40;62.36
42601;BME280;28229;48.856;9.088;2023-04-06T07:19:48;98197.50;;;3.57;62.11
42601;BME280;28229;48.856;9.088;2023-04-06T07:22:14;98194.72;;;3.75;61.19
42601;BME280;28229;48.856;9.088;2023-04-06T07:24:41;98194.97;;;3.97;61.61
42601;BME280;28229;48.856;9.088;2023-04-06T07:27:14;98191.66;;;4.11;58.28
42601;BME280;28229;48.856;9.088;2023-04-06T07:29:44;98195.50;;;4.24;57.59
42601;BME280;28229;48.856;9.088;2023-04-06T07:32:10;98199.31;;;4.44;56.60
42601;BME280;28229;48.856;9.088;2023-04-06T07:34:39;98194.44;;;4.41;56.11
42601;BME280;28229;48.856;9.088;2023-04-06T07:37:06;98189.44;;;4.63;55.94
42601;BME280;28229;48.856;9.088;2023-04-06T07:39:34;98188.97;;;4.82;55.00
42601;BME280;28229;48.856;9.088;2023-04-06T07:42:00;98200.75;;;5.01;55.43
42601;BME280;28229;48.856;9.088;2023-04-06T07:44:26;98190.75;;;5.28;55.86
42601;BME280;28229;48.856;9.088;2023-04-06T07:46:53;98196.88;;;5.50;54.91
42601;BME280;28229;48.856;9.088;2023-04-06T07:49:23;98190.19;;;5.70;52.51
42601;BME280;28229;48.856;9.088;2023-04-06T07:51:50;98198.34;;;5.82;50.51
42601;BME280;28229;48.856;9.088;2023-04-06T07:54:17;98199.44;;;5.88;50.58
42601;BME280;28229;48.856;9.088;2023-04-06T07:56:47;98195.41;;;6.15;50.98
42601;BME280;28229;48.856;9.088;2023-04-06T07:59:13;98191.28;;;6.42;50.42
42601;BME280;28229;48.856;9.088;2023-04-06T08:01:40;98189.06;;;6.61;49.16
42601;BME280;28229;48.856;9.088;2023-04-06T08:04:06;98184.88;;;6.81;48.56
42601;BME280;28229;48.856;9.088;2023-04-06T08:06:32;98184.50;;;7.06;47.73
42601;BME280;28229;48.856;9.088;2023-04-06T08:09:02;98188.31;;;7.32;48.12
42601;BME280;28229;48.856;9.088;2023-04-06T08:11:29;98189.97;;;7.68;47.38
42601;BME280;28229;48.856;9.088;2023-04-06T08:14:02;98193.91;;;7.85;45.82
42601;BME280;28229;48.856;9.088;2023-04-06T08:16:28;98185.34;;;8.05;44.85
42601;BME280;28229;48.856;9.088;2023-04-06T08:18:54;98190.25;;;8.21;44.83
42601;BME280;28229;48.856;9.088;2023-04-06T08:21:25;98186.44;;;8.30;43.70
42601;BME280;28229;48.856;9.088;2023-04-06T08:23:51;98194.19;;;8.45;42.85
42601;BME280;28229;48.856;9.088;2023-04-06T08:26:17;98189.03;;;8.72;44.02
42601;BME280;28229;48.856;9.088;2023-04-06T08:28:43;98191.25;;;8.82;42.79
42601;BME280;28229;48.856;9.088;2023-04-06T08:31:09;98189.66;;;8.94;42.44
42601;BME280;28229;48.856;9.088;2023-04-06T08:33:36;98190.09;;;9.04;42.35
42601;BME280;28229;48.856;9.088;2023-04-06T08:36:09;98184.63;;;9.12;41.33
42601;BME280;28229;48.856;9.088;2023-04-06T08:38:36;98180.19;;;9.33;40.21
42601;BME280;28229;48.856;9.088;2023-04-06T08:41:07;98174.91;;;9.60;38.90
42601;BME280;28229;48.856;9.088;2023-04-06T08:43:48;98178.28;;;9.80;39.10
42601;BME280;28229;48.856;9.088;2023-04-06T08:46:15;98181.31;;;9.90;39.76
42601;BME280;28229;48.856;9.088;2023-04-06T08:48:42;98182.88;;;10.05;39.74
42601;BME280;28229;48.856;9.088;2023-04-06T08:51:10;98178.34;;;10.25;38.58
42601;BME280;28229;48.856;9.088;2023-04-06T08:53:37;98179.47;;;10.50;39.51
42601;BME280;28229;48.856;9.088;2023-04-06T08:56:04;98171.22;;;10.78;39.84
42601;BME280;28229;48.856;9.088;2023-04-06T08:58:39;98163.44;;;10.96;38.46
42601;BME280;28229;48.856;9.088;2023-04-06T09:01:08;98167.56;;;11.11;38.40
42601;BME280;28229;48.856;9.088;2023-04-06T09:03:39;98174.78;;;11.40;37.99
42601;BME280;28229;48.856;9.088;2023-04-06T09:06:06;98177.28;;;11.60;37.71
42601;BME280;28229;48.856;9.088;2023-04-06T09:08:38;98169.28;;;11.67;36.99
42601;BME280;28229;48.856;9.088;2023-04-06T09:11:05;98165.25;;;11.65;36.95
42601;BME280;28229;48.856;9.088;2023-04-06T09:13:43;98170.75;;;11.63;37.08
42601;BME280;28229;48.856;9.088;2023-04-06T09:16:43;98166.56;;;11.74;36.55
42601;BME280;28229;48.856;9.088;2023-04-06T09:19:17;98167.53;;;11.79;36.05
42601;BME280;28229;48.856;9.088;2023-04-06T09:21:46;98168.75;;;12.02;36.03
42601;BME280;28229;48.856;9.088;2023-04-06T09:24:17;98167.91;;;12.20;35.46
42601;BME280;28229;48.856;9.088;2023-04-06T09:27:04;98173.28;;;12.44;34.77
42601;BME280;28229;48.856;9.088;2023-04-06T09:29:30;98171.00;;;12.35;34.72
42601;BME280;28229;48.856;9.088;2023-04-06T09:32:05;98168.94;;;12.37;33.78
42601;BME280;28229;48.856;9.088;2023-04-06T09:34:33;98167.66;;;12.40;34.43
42601;BME280;28229;48.856;9.088;2023-04-06T09:37:00;98163.38;;;12.57;34.31
42601;BME280;28229;48.856;9.088;2023-04-06T09:39:27;98165.16;;;12.75;34.87
42601;BME280;28229;48.856;9.088;2023-04-06T09:41:53;98161.84;;;12.80;33.17
42601;BME280;28229;48.856;9.088;2023-04-06T09:44:24;98165.44;;;12.98;32.98
42601;BME280;28229;48.856;9.088;2023-04-06T09:46:53;98158.94;;;13.12;32.87
42601;BME280;28229;48.856;9.088;2023-04-06T09:49:34;98158.69;;;13.25;32.97
42601;BME280;28229;48.856;9.088;2023-04-06T09:52:03;98160.56;;;13.37;32.55
42601;BME280;28229;48.856;9.088;2023-04-06T09:54:31;98156.88;;;13.61;31.50
42601;BME280;28229;48.856;9.088;2023-04-06T09:57:09;98156.84;;;13.85;31.65
42601;BME280;28229;48.856;9.088;2023-04-06T09:59:44;98148.22;;;13.89;30.28
42601;BME280;28229;48.856;9.088;2023-04-06T10:02:41;98147.69;;;13.52;29.27
42601;BME280;28229;48.856;9.088;2023-04-06T10:05:35;98148.63;;;13.58;29.68
42601;BME280;28229;48.856;9.088;2023-04-06T10:08:06;98141.63;;;13.51;30.87
42601;BME280;28229;48.856;9.088;2023-04-06T10:10:34;98152.50;;;13.79;30.46
42601;BME280;28229;48.856;9.088;2023-04-06T10:13:03;98152.44;;;14.02;29.93
42601;BME280;28229;48.856;9.088;2023-04-06T10:15:30;98144.97;;;14.11;29.77
42601;BME280;28229;48.856;9.088;2023-04-06T10:18:00;98144.28;;;14.04;28.88
42601;BME280;28229;48.856;9.088;2023-04-06T10:23:15;98147.72;;;14.04;29.49
42601;BME280;28229;48.856;9.088;2023-04-06T10:25:57;98139.78;;;14.04;29.24
42601;BME280;28229;48.856;9.088;2023-04-06T10:28:30;98136.59;;;14.02;29.55
42601;BME280;28229;48.856;9.088;2023-04-06T10:31:02;98141.75;;;14.09;28.40
42601;BME280;28229;48.856;9.088;2023-04-06T10:33:33;98142.31;;;14.40;27.46
42601;BME280;28229;48.856;9.088;2023-04-06T10:36:21;98136.59;;;14.31;28.11
42601;BME280;28229;48.856;9.088;2023-04-06T10:39:23;98140.84;;;14.73;28.33
42601;BME280;28229;48.856;9.088;2023-04-06T10:42:06;98141.63;;;14.73;28.40
42601;BME280;28229;48.856;9.088;2023-04-06T10:44:42;98135.22;;;14.69;27.45
42601;BME280;28229;48.856;9.088;2023-04-06T10:47:18;98134.47;;;14.74;28.69
42601;BME280;28229;48.856;9.088;2023-04-06T10:49:59;98128.53;;;14.38;28.80
42601;BME280;28229;48.856;9.088;2023-04-06T10:52:26;98133.28;;;14.53;28.90
42601;BME280;28229;48.856;9.088;2023-04-06T10:54:53;98128.75;;;14.65;28.50
42601;BME280;28229;48.856;9.088;2023-04-06T10:57:28;98132.50;;;14.98;29.16
42601;BME280;28229;48.856;9.088;2023-04-06T10:59:55;98131.94;;;14.96;28.64
42601;BME280;28229;48.856;9.088;2023-04-06T11:02:23;98130.75;;;14.87;27.78
42601;BME280;28229;48.856;9.088;2023-04-06T11:04:56;98126.94;;;15.16;27.99
42601;BME280;28229;48.856;9.088;2023-04-06T11:07:26;98128.66;;;15.22;27.53
42601;BME280;28229;48.856;9.088;2023-04-06T11:09:53;98127.81;;;15.22;26.70
42601;BME280;28229;48.856;9.088;2023-04-06T11:12:27;98121.41;;;15.35;28.53
42601;BME280;28229;48.856;9.088;2023-04-06T11:14:58;98116.69;;;15.59;28.06
42601;BME280;28229;48.856;9.088;2023-04-06T11:17:31;98113.06;;;15.26;27.73
42601;BME280;28229;48.856;9.088;2023-04-06T11:20:02;98110.72;;;15.30;27.87
42601;BME280;28229;48.856;9.088;2023-04-06T11:22:30;98103.09;;;15.16;26.63
42601;BME280;28229;48.856;9.088;2023-04-06T11:25:06;98098.97;;;15.26;27.27
42601;BME280;28229;48.856;9.088;2023-04-06T11:27:34;98099.16;;;15.75;26.37
42601;BME280;28229;48.856;9.088;2023-04-06T11:30:02;98106.06;;;15.76;25.45
42601;BME280;28229;48.856;9.088;2023-04-06T11:32:28;98096.69;;;15.90;26.84
42601;BME280;28229;48.856;9.088;2023-04-06T11:34:57;98096.88;;;15.67;27.81
42601;BME280;28229;48.856;9.088;2023-04-06T11:37:28;98091.88;;;15.48;27.06
42601;BME280;28229;48.856;9.088;2023-04-06T11:39:55;98089.16;;;15.43;27.12
42601;BME280;28229;48.856;9.088;2023-04-06T11:42:27;98089.50;;;15.69;27.62
42601;BME280;28229;48.856;9.088;2023-04-06T11:44:55;98080.72;;;15.85;26.74
42601;BME280;28229;48.856;9.088;2023-04-06T11:47:30;98090.91;;;16.21;25.97
42601;BME280;28229;48.856;9.088;2023-04-06T11:50:09;98090.31;;;16.41;25.97
42601;BME280;28229;48.856;9.088;2023-04-06T11:52:39;98088.66;;;16.34;26.13
42601;BME280;28229;48.856;9.088;2023-04-06T11:57:39;98087.59;;;16.35;24.68
42601;BME280;28229;48.856;9.088;2023-04-06T12:00:07;98081.81;;;16.39;25.13
42601;BME280;28229;48.856;9.088;2023-04-06T12:02:35;98080.19;;;16.37;24.74
42601;BME280;28229;48.856;9.088;2023-04-06T12:05:03;98083.56;;;16.06;24.45
42601;BME280;28229;48.856;9.088;2023-04-06T12:07:31;98081.38;;;15.97;24.59
42601;BME280;28229;48.856;9.088;2023-04-06T12:10:03;98077.59;;;16.15;24.79
42601;BME280;28229;48.856;9.088;2023-04-06T12:12:30;98073.56;;;16.13;24.59
42601;BME280;28229;48.856;9.088;2023-04-06T12:14:57;98071.97;;;16.12;24.67
42601;BME280;28229;48.856;9.088;2023-04-06T12:17:23;98063.81;;;16.46;26.04
42601;BME280;28229;48.856;9.088;2023-04-06T12:19:50;98067.13;;;16.58;25.68
42601;BME280;28229;48.856;9.088;2023-04-06T12:22:17;98064.03;;;16.71;26.67
42601;BME280;28229;48.856;9.088;2023-04-06T12:24:43;98053.31;;;16.61;23.75
42601;BME280;28229;48.856;9.088;2023-04-06T12:27:10;98061.03;;;16.95;25.16
42601;BME280;28229;48.856;9.088;2023-04-06T12:29:37;98057.66;;;17.05;25.92
42601;BME280;28229;48.856;9.088;2023-04-06T12:32:04;98047.66;;;17.22;24.28
42601;BME280;28229;48.856;9.088;2023-04-06T12:34:32;98052.25;;;17.37;24.88
42601;BME280;28229;48.856;9.088;2023-04-06T12:36:58;98051.22;;;17.48;25.12
42601;BME280;28229;48.856;9.088;2023-04-06T12:39:24;98051.78;;;17.56;22.85
42601;BME280;28229;48.856;9.088;2023-04-06T12:41:51;98051.25;;;17.43;22.84
42601;BME280;28229;48.856;9.088;2023-04-06T12:44:17;98045.97;;;17.59;23.96
42601;BME280;28229;48.856;9.088;2023-04-06T12:46:44;98043.19;;;17.33;23.72
42601;BME280;28229;48.856;9.088;2023-04-06T12:49:14;98040.66;;;17.59;23.19
42601;BME280;28229;48.856;9.088;2023-04-06T12:51:43;98036.47;;;17.83;24.26
42601;BME280;28229;48.856;9.088;2023-04-06T12:54:09;98040.03;;;18.10;23.92
42601;BME280;28229;48.856;9.088;2023-04-06T12:56:37;98034.97;;;18.23;22.44
42601;BME280;28229;48.856;9.088;2023-04-06T12:59:06;98035.53;;;18.36;22.92
42601;BME280;28229;48.856;9.088;2023-04-06T13:01:35;98032.34;;;18.29;21.90
42601;BME280;28229;48.856;9.088;2023-04-06T13:04:01;98035.00;;;18.34;22.10
42601;BME280;28229;48.856;9.088;2023-04-06T13:06:28;98024.34;;;18.08;21.58
42601;BME280;28229;48.856;9.088;2023-04-06T13:08:55;98029.09;;;17.96;21.41
42601;BME280;28229;48.856;9.088;2023-04-06T13:11:21;98036.94;;;17.60;21.56
42601;BME280;28229;48.856;9.088;2023-04-06T13:13:49;98027.31;;;17.54;22.01
42601;BME280;28229;48.856;9.088;2023-04-06T13:16:16;98018.81;;;17.51;22.96
42601;BME280;28229;48.856;9.088;2023-04-06T13:18:42;98022.56;;;17.61;22.85
42601;BME280;28229;48.856;9.088;2023-04-06T13:21:13;98008.00;;;17.74;23.33
42601;BME280;28229;48.856;9.088;2023-04-06T13:23:41;98010.19;;;17.97;22.46
42601;BME280;28229;48.856;9.088;2023-04-06T13:26:07;98006.25;;;18.20;21.72
42601;BME280;28229;48.856;9.088;2023-04-06T13:28:35;98004.63;;;18.04;22.08
42601;BME280;28229;48.856;9.088;2023-04-06T13:31:03;98003.03;;;18.13;20.95
42601;BME280;28229;48.856;9.088;2023-04-06T13:33:30;98002.00;;;18.30;21.85